createdAt,value
2022-11-13T00:04:20.555Z,1.81
2022-11-13T00:09:40.820Z,1.64
2022-11-13T00:15:02.128Z,1.27
2022-11-13T00:20:22.086Z,1.47
2022-11-13T00:25:42.422Z,1.55
2022-11-13T00:31:04.742Z,1.60
2022-11-13T00:36:27.317Z,1.62
2022-11-13T00:41:47.509Z,1.65
2022-11-13T00:47:07.703Z,1.38
2022-11-13T00:52:27.903Z,1.43
2022-11-13T00:57:48.126Z,1.28
2022-11-13T01:03:09.123Z,1.16
2022-11-13T01:08:29.327Z,1.19
2022-11-13T01:13:51.456Z,0.98
2022-11-13T01:19:11.639Z,1.10
2022-11-13T01:24:32.118Z,1.05
2022-11-13T01:29:52.605Z,1.08
2022-11-13T01:35:12.825Z,1.19
2022-11-13T01:40:33.093Z,0.92
2022-11-13T01:45:59.499Z,0.82
2022-11-13T01:51:31.570Z,0.68
2022-11-13T01:56:52.542Z,0.73
2022-11-13T02:02:12.701Z,0.80
2022-11-13T02:07:33.154Z,0.71
2022-11-13T02:12:53.516Z,0.55
2022-11-13T02:18:16.619Z,0.50
2022-11-13T02:24:00.367Z,0.48
2022-11-13T02:29:20.472Z,0.52
2022-11-13T02:34:40.808Z,0.59
2022-11-13T02:40:01.063Z,0.67
2022-11-13T02:45:21.626Z,0.56
2022-11-13T02:50:42.054Z,0.44
2022-11-13T02:56:02.055Z,0.38
2022-11-13T03:01:22.515Z,0.43
2022-11-13T03:06:42.797Z,0.48
2022-11-13T03:12:03.116Z,0.52
2022-11-13T03:17:23.353Z,0.56
2022-11-13T03:22:43.648Z,0.19
2022-11-13T03:28:03.992Z,0.17
2022-11-13T03:33:24.894Z,0.01
2022-11-13T03:38:45.365Z,0.00
2022-11-13T03:44:05.744Z,0.09
2022-11-13T03:49:25.951Z,0.11
2022-11-13T03:54:46.165Z,-0.05
2022-11-13T04:00:07.024Z,-0.04
2022-11-13T04:05:27.636Z,-0.03
2022-11-13T04:10:47.543Z,-0.08
2022-11-13T04:16:07.936Z,-0.08
2022-11-13T04:21:28.576Z,0.04
2022-11-13T04:26:48.580Z,-0.02
2022-11-13T04:32:08.946Z,0.02
2022-11-13T04:37:29.349Z,0.02
2022-11-13T04:42:49.550Z,-0.05
2022-11-13T04:48:09.799Z,-0.15
2022-11-13T04:53:29.979Z,-0.07
2022-11-13T04:58:50.345Z,-0.25
2022-11-13T05:04:15.041Z,-0.08
2022-11-13T05:09:35.316Z,-0.27
2022-11-13T05:14:55.560Z,-0.40
2022-11-13T05:20:16.375Z,-0.41
2022-11-13T05:25:36.381Z,-0.37
2022-11-13T05:31:08.877Z,-0.43
2022-11-13T05:36:28.814Z,-0.60
2022-11-13T05:41:49.135Z,-0.54
2022-11-13T05:47:09.386Z,-0.47
2022-11-13T05:52:29.767Z,-0.42
2022-11-13T05:57:50.018Z,-0.48
2022-11-13T06:03:10.455Z,-0.26
2022-11-13T06:08:31.232Z,-0.41
2022-11-13T06:13:53.370Z,-0.38
2022-11-13T06:19:13.675Z,-0.56
2022-11-13T06:24:33.958Z,-0.47
2022-11-13T06:29:54.140Z,-0.34
2022-11-13T06:35:14.404Z,-0.44
2022-11-13T06:40:34.647Z,-0.45
2022-11-13T06:45:55.783Z,-0.52
2022-11-13T06:51:20.203Z,-0.57
2022-11-13T06:56:45.420Z,-0.37
2022-11-13T07:02:05.971Z,-0.22
2022-11-13T07:07:26.027Z,-0.17
2022-11-13T07:12:50.634Z,-0.27
2022-11-13T07:18:13.608Z,-0.26
2022-11-13T07:23:37.029Z,0.05
2022-11-13T07:28:57.424Z,0.03
2022-11-13T07:34:17.820Z,-0.32
2022-11-13T07:39:38.069Z,-0.02
2022-11-13T07:44:58.471Z,0.06
2022-11-13T07:50:18.727Z,0.17
2022-11-13T07:55:38.934Z,0.34
2022-11-13T08:01:04.728Z,0.35
2022-11-13T08:06:27.664Z,0.58
2022-11-13T08:11:47.912Z,0.18
2022-11-13T08:17:07.847Z,0.68
2022-11-13T08:22:30.155Z,0.77
2022-11-13T08:27:53.001Z,1.03
2022-11-13T08:33:13.264Z,1.53
2022-11-13T08:38:33.438Z,1.61
2022-11-13T08:43:53.716Z,1.58
2022-11-13T08:49:13.992Z,1.82
2022-11-13T08:54:34.155Z,1.92
2022-11-13T08:59:54.414Z,2.87
2022-11-13T09:05:14.688Z,4.26
2022-11-13T09:10:35.037Z,4.66
2022-11-13T09:15:58.352Z,7.48
2022-11-13T09:21:18.775Z,9.00
2022-11-13T09:26:38.924Z,7.88
2022-11-13T09:31:59.142Z,6.84
2022-11-13T09:37:19.438Z,7.12
2022-11-13T09:42:41.240Z,8.71
2022-11-13T09:48:21.550Z,10.73
2022-11-13T09:53:41.853Z,12.06
2022-11-13T09:59:04.806Z,9.47
2022-11-13T10:04:40.356Z,11.92
2022-11-13T10:10:44.849Z,11.84
2022-11-13T10:16:27.949Z,12.21
2022-11-13T10:22:19.709Z,10.44
2022-11-13T10:27:39.874Z,13.42
2022-11-13T10:33:08.684Z,14.42
2022-11-13T10:38:39.040Z,14.87
2022-11-13T10:44:02.839Z,16.54
2022-11-13T10:49:29.141Z,17.53
2022-11-13T10:54:50.329Z,19.46
2022-11-13T11:00:21.534Z,21.86
2022-11-13T11:05:52.523Z,21.40
2022-11-13T11:11:36.115Z,17.00
2022-11-13T11:16:57.464Z,19.99
2022-11-13T11:22:22.401Z,19.14
2022-11-13T11:28:04.898Z,21.45
2022-11-13T11:33:36.699Z,19.82
2022-11-13T11:39:42.442Z,20.07
2022-11-13T11:45:30.219Z,19.80
2022-11-13T11:51:12.541Z,18.28
2022-11-13T11:56:37.169Z,17.73
2022-11-13T12:02:06.251Z,16.16
2022-11-13T12:07:47.232Z,18.75
2022-11-13T12:13:31.608Z,18.62
2022-11-13T12:19:24.212Z,16.10
2022-11-13T12:25:08.030Z,18.25
2022-11-13T12:30:42.543Z,17.98
2022-11-13T12:36:03.728Z,17.85
2022-11-13T12:41:45.284Z,18.09
2022-11-13T12:47:08.725Z,16.82
2022-11-13T12:52:28.682Z,15.17
2022-11-13T12:57:48.953Z,14.59
2022-11-13T13:03:12.233Z,14.27
2022-11-13T13:08:45.127Z,15.33
2022-11-13T13:14:21.772Z,16.02
2022-11-13T13:19:42.321Z,15.93
2022-11-13T13:25:22.321Z,13.89
2022-11-13T13:30:56.988Z,13.78
2022-11-13T13:36:29.464Z,13.58
2022-11-13T13:42:19.192Z,14.72
2022-11-13T13:47:45.343Z,14.29
2022-11-13T13:53:05.814Z,14.36
2022-11-13T13:58:44.952Z,13.77
2022-11-13T14:04:17.324Z,13.79
2022-11-13T14:09:37.401Z,13.90
2022-11-13T14:14:57.790Z,13.63
2022-11-13T14:20:19.217Z,12.83
2022-11-13T14:25:39.844Z,12.38
2022-11-13T14:31:06.976Z,11.78
2022-11-13T14:36:32.883Z,11.56
2022-11-13T14:41:58.940Z,10.62
2022-11-13T14:47:28.738Z,9.80
2022-11-13T14:53:07.357Z,9.71
2022-11-13T14:58:35.141Z,9.29
2022-11-13T15:03:55.466Z,8.87
2022-11-13T15:09:17.665Z,8.71
2022-11-13T15:14:41.408Z,8.33
2022-11-13T15:20:05.433Z,8.18
2022-11-13T15:25:29.445Z,8.39
2022-11-13T15:30:49.732Z,7.74
2022-11-13T15:36:10.113Z,7.69
2022-11-13T15:41:30.870Z,7.59
2022-11-13T15:46:51.226Z,7.48
2022-11-13T15:52:11.577Z,7.38
2022-11-13T15:57:31.788Z,7.32
2022-11-13T16:02:56.824Z,6.90
2022-11-13T16:08:17.124Z,6.79
2022-11-13T16:13:37.409Z,6.47
2022-11-13T16:19:00.353Z,6.30
2022-11-13T16:24:24.203Z,6.21
2022-11-13T16:29:44.985Z,6.34
2022-11-13T16:35:05.572Z,6.33
2022-11-13T16:40:26.817Z,6.43
2022-11-13T16:45:46.707Z,6.64
2022-11-13T16:51:06.938Z,6.73
2022-11-13T16:56:30.242Z,6.68
2022-11-13T17:01:55.132Z,6.59
2022-11-13T17:07:16.186Z,6.33
2022-11-13T17:12:36.536Z,5.93
2022-11-13T17:17:58.603Z,5.93
2022-11-13T17:23:18.968Z,5.90
2022-11-13T17:28:39.578Z,6.01
2022-11-13T17:33:59.711Z,6.16
2022-11-13T17:39:20.529Z,5.25
2022-11-13T17:44:40.958Z,5.09
2022-11-13T17:50:06.742Z,5.23
2022-11-13T17:55:27.587Z,5.13
2022-11-13T18:00:48.326Z,5.21
2022-11-13T18:06:13.242Z,5.03
2022-11-13T18:11:34.179Z,5.20
2022-11-13T18:16:54.076Z,5.20
2022-11-13T18:22:15.185Z,5.08
2022-11-13T18:27:36.383Z,4.91
2022-11-13T18:32:56.679Z,5.21
2022-11-13T18:38:16.788Z,4.90
2022-11-13T18:43:38.165Z,4.90
2022-11-13T18:48:59.327Z,5.10
2022-11-13T18:54:19.706Z,5.08
2022-11-13T18:59:39.991Z,5.43
2022-11-13T19:05:00.302Z,5.68
2022-11-13T19:10:22.250Z,5.79
2022-11-13T19:15:42.305Z,5.64
2022-11-13T19:21:12.711Z,5.56
2022-11-13T19:26:32.967Z,5.41
2022-11-13T19:31:54.841Z,5.38
2022-11-13T19:37:19.112Z,5.82
2022-11-13T19:42:41.954Z,5.55
2022-11-13T19:48:02.074Z,5.43
2022-11-13T19:53:22.398Z,5.55
2022-11-13T19:58:44.484Z,5.41
2022-11-13T20:04:05.681Z,5.46
2022-11-13T20:09:25.546Z,5.77
2022-11-13T20:14:45.800Z,6.13
2022-11-13T20:20:06.496Z,5.83
2022-11-13T20:25:28.501Z,5.99
2022-11-13T20:30:49.292Z,5.84
2022-11-13T20:36:10.034Z,5.49
2022-11-13T20:41:30.508Z,5.39
2022-11-13T20:46:50.732Z,5.31
2022-11-13T20:52:12.197Z,5.20
2022-11-13T20:57:36.733Z,5.61
2022-11-13T21:03:00.202Z,5.71
2022-11-13T21:08:20.557Z,5.73
2022-11-13T21:13:40.877Z,7.36
2022-11-13T21:19:01.293Z,7.33
2022-11-13T21:24:21.533Z,8.15
2022-11-13T21:29:41.840Z,8.52
2022-11-13T21:35:02.071Z,8.64
2022-11-13T21:40:22.590Z,8.57
2022-11-13T21:45:42.534Z,8.24
2022-11-13T21:51:02.789Z,8.09
2022-11-13T21:56:24.491Z,7.48
2022-11-13T22:01:44.647Z,7.51
2022-11-13T22:07:04.732Z,7.27
2022-11-13T22:12:25.023Z,7.29
2022-11-13T22:17:45.360Z,6.93
2022-11-13T22:23:05.975Z,6.45
2022-11-13T22:28:26.011Z,7.20
2022-11-13T22:33:48.939Z,7.04
2022-11-13T22:39:11.717Z,7.00
2022-11-13T22:44:51.575Z,6.81
2022-11-13T22:50:12.317Z,6.62
2022-11-13T22:55:32.639Z,6.36
2022-11-13T23:00:53.340Z,6.14
2022-11-13T23:06:16.244Z,6.09
2022-11-13T23:11:41.213Z,5.77
2022-11-13T23:17:01.270Z,5.90
2022-11-13T23:22:21.560Z,5.72
2022-11-13T23:27:41.897Z,5.19
2022-11-13T23:33:02.055Z,4.95
2022-11-13T23:38:22.541Z,5.11
2022-11-13T23:49:23.102Z,4.93
2022-11-13T23:54:43.492Z,4.70
